sensor_id;sensor_type;location;lat;lon;timestamp;P1;durP1;ratioP1;P2;durP2;ratioP2
20527;SDS011;23612;50.894;10.700;2022-11-03T00:01:33;4.85;;;3.17;;
20527;SDS011;23612;50.894;10.700;2022-11-03T00:04:02;8.45;;;2.78;;
20527;SDS011;23612;50.894;10.700;2022-11-03T00:06:28;13.68;;;3.58;;
20527;SDS011;23612;50.894;10.700;2022-11-03T00:08:56;10.43;;;2.95;;
20527;SDS011;23612;50.894;10.700;2022-11-03T00:11:22;10.48;;;2.80;;
20527;SDS011;23612;50.894;10.700;2022-11-03T00:13:48;6.95;;;2.50;;
20527;SDS011;23612;50.894;10.700;2022-11-03T00:16:13;10.48;;;2.80;;
20527;SDS011;23612;50.894;10.700;2022-11-03T00:18:39;8.25;;;2.65;;
20527;SDS011;23612;50.894;10.700;2022-11-03T00:21:06;13.80;;;2.78;;
20527;SDS011;23612;50.894;10.700;2022-11-03T00:23:34;13.63;;;3.05;;
20527;SDS011;23612;50.894;10.700;2022-11-03T00:26:12;10.68;;;2.92;;
20527;SDS011;23612;50.894;10.700;2022-11-03T00:28:45;8.52;;;2.53;;
20527;SDS011;23612;50.894;10.700;2022-11-03T00:31:15;15.10;;;2.83;;
20527;SDS011;23612;50.894;10.700;2022-11-03T00:33:49;13.82;;;2.55;;
20527;SDS011;23612;50.894;10.700;2022-11-03T00:36:16;10.43;;;2.90;;
20527;SDS011;23612;50.894;10.700;2022-11-03T00:38:44;11.98;;;3.03;;
20527;SDS011;23612;50.894;10.700;2022-11-03T00:41:10;16.70;;;2.65;;
20527;SDS011;23612;50.894;10.700;2022-11-03T00:43:37;9.07;;;2.80;;
20527;SDS011;23612;50.894;10.700;2022-11-03T00:46:03;9.15;;;2.78;;
20527;SDS011;23612;50.894;10.700;2022-11-03T00:48:30;8.45;;;2.75;;
20527;SDS011;23612;50.894;10.700;2022-11-03T00:53:52;16.60;;;3.05;;
20527;SDS011;23612;50.894;10.700;2022-11-03T00:56:23;16.85;;;3.38;;
20527;SDS011;23612;50.894;10.700;2022-11-03T00:58:50;15.63;;;3.33;;
20527;SDS011;23612;50.894;10.700;2022-11-03T01:01:24;12.57;;;3.00;;
20527;SDS011;23612;50.894;10.700;2022-11-03T01:03:52;10.70;;;2.60;;
20527;SDS011;23612;50.894;10.700;2022-11-03T01:06:39;15.95;;;2.70;;
20527;SDS011;23612;50.894;10.700;2022-11-03T01:09:17;13.70;;;2.63;;
20527;SDS011;23612;50.894;10.700;2022-11-03T01:12:27;11.98;;;3.30;;
20527;SDS011;23612;50.894;10.700;2022-11-03T01:17:14;12.45;;;2.83;;
20527;SDS011;23612;50.894;10.700;2022-11-03T01:19:42;9.30;;;2.70;;
20527;SDS011;23612;50.894;10.700;2022-11-03T01:22:07;10.55;;;2.80;;
20527;SDS011;23612;50.894;10.700;2022-11-03T01:24:34;14.35;;;2.80;;
20527;SDS011;23612;50.894;10.700;2022-11-03T01:26:59;6.78;;;2.22;;
20527;SDS011;23612;50.894;10.700;2022-11-03T01:29:25;8.77;;;2.28;;
20527;SDS011;23612;50.894;10.700;2022-11-03T01:31:50;10.18;;;2.95;;
20527;SDS011;23612;50.894;10.700;2022-11-03T01:34:17;9.48;;;3.65;;
20527;SDS011;23612;50.894;10.700;2022-11-03T01:36:44;8.63;;;2.67;;
20527;SDS011;23612;50.894;10.700;2022-11-03T01:39:11;9.52;;;2.80;;
20527;SDS011;23612;50.894;10.700;2022-11-03T01:41:38;8.43;;;2.35;;
20527;SDS011;23612;50.894;10.700;2022-11-03T01:46:46;10.80;;;2.58;;
20527;SDS011;23612;50.894;10.700;2022-11-03T01:49:19;9.05;;;2.13;;
20527;SDS011;23612;50.894;10.700;2022-11-03T01:51:56;12.45;;;3.25;;
20527;SDS011;23612;50.894;10.700;2022-11-03T01:54:28;4.80;;;2.30;;
20527;SDS011;23612;50.894;10.700;2022-11-03T01:56:56;7.65;;;2.50;;
20527;SDS011;23612;50.894;10.700;2022-11-03T01:59:23;11.00;;;2.63;;
20527;SDS011;23612;50.894;10.700;2022-11-03T02:01:49;9.20;;;2.50;;
20527;SDS011;23612;50.894;10.700;2022-11-03T02:04:18;11.43;;;2.45;;
20527;SDS011;23612;50.894;10.700;2022-11-03T02:06:51;7.03;;;2.65;;
20527;SDS011;23612;50.894;10.700;2022-11-03T02:09:22;7.82;;;2.20;;
20527;SDS011;23612;50.894;10.700;2022-11-03T02:11:48;7.35;;;2.50;;
20527;SDS011;23612;50.894;10.700;2022-11-03T02:14:36;9.02;;;3.08;;
20527;SDS011;23612;50.894;10.700;2022-11-03T02:17:06;7.90;;;3.13;;
20527;SDS011;23612;50.894;10.700;2022-11-03T02:19:37;9.13;;;2.70;;
20527;SDS011;23612;50.894;10.700;2022-11-03T02:27:31;13.02;;;2.90;;
20527;SDS011;23612;50.894;10.700;2022-11-03T02:29:57;11.48;;;2.88;;
20527;SDS011;23612;50.894;10.700;2022-11-03T02:32:23;10.48;;;2.78;;
20527;SDS011;23612;50.894;10.700;2022-11-03T02:37:39;11.55;;;3.20;;
20527;SDS011;23612;50.894;10.700;2022-11-03T02:40:09;8.23;;;3.05;;
20527;SDS011;23612;50.894;10.700;2022-11-03T02:42:43;15.95;;;3.40;;
20527;SDS011;23612;50.894;10.700;2022-11-03T02:45:12;12.30;;;3.20;;
20527;SDS011;23612;50.894;10.700;2022-11-03T02:47:41;10.65;;;2.50;;
20527;SDS011;23612;50.894;10.700;2022-11-03T02:50:07;9.90;;;3.10;;
20527;SDS011;23612;50.894;10.700;2022-11-03T02:57:42;11.38;;;2.85;;
20527;SDS011;23612;50.894;10.700;2022-11-03T03:00:28;14.27;;;3.47;;
20527;SDS011;23612;50.894;10.700;2022-11-03T03:03:07;8.35;;;2.60;;
20527;SDS011;23612;50.894;10.700;2022-11-03T03:05:37;16.45;;;2.55;;
20527;SDS011;23612;50.894;10.700;2022-11-03T03:08:06;8.55;;;2.47;;
20527;SDS011;23612;50.894;10.700;2022-11-03T03:10:35;10.30;;;2.60;;
20527;SDS011;23612;50.894;10.700;2022-11-03T03:13:06;8.43;;;2.55;;
20527;SDS011;23612;50.894;10.700;2022-11-03T03:15:56;11.40;;;2.67;;
20527;SDS011;23612;50.894;10.700;2022-11-03T03:21:20;14.65;;;3.22;;
20527;SDS011;23612;50.894;10.700;2022-11-03T03:23:54;9.30;;;2.85;;
20527;SDS011;23612;50.894;10.700;2022-11-03T03:26:24;8.32;;;3.05;;
20527;SDS011;23612;50.894;10.700;2022-11-03T03:29:03;12.90;;;2.78;;
20527;SDS011;23612;50.894;10.700;2022-11-03T03:31:33;14.52;;;2.88;;
20527;SDS011;23612;50.894;10.700;2022-11-03T03:34:03;12.73;;;2.70;;
20527;SDS011;23612;50.894;10.700;2022-11-03T03:36:29;10.13;;;2.78;;
20527;SDS011;23612;50.894;10.700;2022-11-03T03:38:59;8.15;;;2.58;;
20527;SDS011;23612;50.894;10.700;2022-11-03T03:41:28;7.57;;;2.25;;
20527;SDS011;23612;50.894;10.700;2022-11-03T03:43:58;9.57;;;2.78;;
20527;SDS011;23612;50.894;10.700;2022-11-03T03:46:28;13.15;;;2.60;;
20527;SDS011;23612;50.894;10.700;2022-11-03T03:48:58;10.55;;;2.42;;
20527;SDS011;23612;50.894;10.700;2022-11-03T03:51:24;11.63;;;3.17;;
20527;SDS011;23612;50.894;10.700;2022-11-03T03:53:52;10.35;;;3.10;;
20527;SDS011;23612;50.894;10.700;2022-11-03T03:56:26;11.30;;;2.83;;
20527;SDS011;23612;50.894;10.700;2022-11-03T03:58:56;7.75;;;3.25;;
20527;SDS011;23612;50.894;10.700;2022-11-03T04:01:22;9.45;;;2.70;;
20527;SDS011;23612;50.894;10.700;2022-11-03T04:03:48;14.05;;;3.78;;
20527;SDS011;23612;50.894;10.700;2022-11-03T04:06:13;14.95;;;3.28;;
20527;SDS011;23612;50.894;10.700;2022-11-03T04:08:39;12.35;;;3.20;;
20527;SDS011;23612;50.894;10.700;2022-11-03T04:11:04;12.98;;;3.40;;
20527;SDS011;23612;50.894;10.700;2022-11-03T04:13:48;11.60;;;3.30;;
20527;SDS011;23612;50.894;10.700;2022-11-03T04:16:32;15.40;;;3.50;;
20527;SDS011;23612;50.894;10.700;2022-11-03T04:19:16;7.32;;;3.50;;
20527;SDS011;23612;50.894;10.700;2022-11-03T04:22:00;11.70;;;3.70;;
20527;SDS011;23612;50.894;10.700;2022-11-03T04:24:49;10.00;;;3.13;;
20527;SDS011;23612;50.894;10.700;2022-11-03T04:29:56;8.50;;;2.85;;
20527;SDS011;23612;50.894;10.700;2022-11-03T04:32:30;14.35;;;3.28;;
20527;SDS011;23612;50.894;10.700;2022-11-03T04:34:55;9.38;;;3.25;;
20527;SDS011;23612;50.894;10.700;2022-11-03T04:37:22;12.85;;;3.10;;
20527;SDS011;23612;50.894;10.700;2022-11-03T04:39:53;13.60;;;3.85;;
20527;SDS011;23612;50.894;10.700;2022-11-03T04:42:24;9.48;;;2.63;;
20527;SDS011;23612;50.894;10.700;2022-11-03T04:44:50;7.45;;;2.72;;
20527;SDS011;23612;50.894;10.700;2022-11-03T04:47:16;16.88;;;9.10;;
20527;SDS011;23612;50.894;10.700;2022-11-03T04:49:42;13.40;;;3.95;;
20527;SDS011;23612;50.894;10.700;2022-11-03T04:52:15;11.48;;;3.55;;
20527;SDS011;23612;50.894;10.700;2022-11-03T04:54:46;11.48;;;4.10;;
20527;SDS011;23612;50.894;10.700;2022-11-03T04:57:13;9.20;;;3.65;;
20527;SDS011;23612;50.894;10.700;2022-11-03T04:59:40;14.00;;;3.65;;
20527;SDS011;23612;50.894;10.700;2022-11-03T05:02:10;10.82;;;3.50;;
20527;SDS011;23612;50.894;10.700;2022-11-03T05:04:38;18.70;;;3.53;;
20527;SDS011;23612;50.894;10.700;2022-11-03T05:07:11;10.40;;;3.78;;
20527;SDS011;23612;50.894;10.700;2022-11-03T05:09:44;14.95;;;5.60;;
20527;SDS011;23612;50.894;10.700;2022-11-03T05:12:10;15.30;;;7.22;;
20527;SDS011;23612;50.894;10.700;2022-11-03T05:14:36;22.98;;;10.38;;
20527;SDS011;23612;50.894;10.700;2022-11-03T05:17:02;25.67;;;8.18;;
20527;SDS011;23612;50.894;10.700;2022-11-03T05:19:40;20.85;;;9.73;;
20527;SDS011;23612;50.894;10.700;2022-11-03T05:22:07;17.02;;;9.38;;
20527;SDS011;23612;50.894;10.700;2022-11-03T05:24:39;14.50;;;8.02;;
20527;SDS011;23612;50.894;10.700;2022-11-03T05:27:07;16.58;;;7.57;;
20527;SDS011;23612;50.894;10.700;2022-11-03T05:29:40;20.17;;;8.05;;
20527;SDS011;23612;50.894;10.700;2022-11-03T05:32:10;18.23;;;8.07;;
20527;SDS011;23612;50.894;10.700;2022-11-03T05:34:41;13.20;;;7.95;;
20527;SDS011;23612;50.894;10.700;2022-11-03T05:39:58;16.75;;;6.00;;
20527;SDS011;23612;50.894;10.700;2022-11-03T05:42:38;15.13;;;5.53;;
20527;SDS011;23612;50.894;10.700;2022-11-03T05:47:43;12.18;;;5.68;;
20527;SDS011;23612;50.894;10.700;2022-11-03T05:50:15;17.52;;;8.02;;
20527;SDS011;23612;50.894;10.700;2022-11-03T05:52:44;47.88;;;28.48;;
20527;SDS011;23612;50.894;10.700;2022-11-03T05:55:16;60.15;;;34.40;;
20527;SDS011;23612;50.894;10.700;2022-11-03T05:57:56;45.03;;;20.00;;
20527;SDS011;23612;50.894;10.700;2022-11-03T06:00:28;30.25;;;12.82;;
20527;SDS011;23612;50.894;10.700;2022-11-03T06:03:03;29.85;;;13.20;;
20527;SDS011;23612;50.894;10.700;2022-11-03T06:05:29;28.00;;;11.77;;
20527;SDS011;23612;50.894;10.700;2022-11-03T06:07:58;39.25;;;12.82;;
20527;SDS011;23612;50.894;10.700;2022-11-03T06:10:28;28.23;;;10.57;;
20527;SDS011;23612;50.894;10.700;2022-11-03T06:13:00;26.48;;;9.57;;
20527;SDS011;23612;50.894;10.700;2022-11-03T06:15:30;22.13;;;10.30;;
20527;SDS011;23612;50.894;10.700;2022-11-03T06:17:57;23.48;;;10.80;;
20527;SDS011;23612;50.894;10.700;2022-11-03T06:20:24;21.92;;;9.20;;
20527;SDS011;23612;50.894;10.700;2022-11-03T06:22:50;22.10;;;8.90;;
20527;SDS011;23612;50.894;10.700;2022-11-03T06:25:26;17.45;;;6.93;;
20527;SDS011;23612;50.894;10.700;2022-11-03T06:27:59;14.27;;;6.68;;
20527;SDS011;23612;50.894;10.700;2022-11-03T06:30:28;20.70;;;7.68;;
20527;SDS011;23612;50.894;10.700;2022-11-03T06:32:57;16.33;;;8.18;;
20527;SDS011;23612;50.894;10.700;2022-11-03T06:35:25;24.13;;;11.68;;
20527;SDS011;23612;50.894;10.700;2022-11-03T06:37:51;21.60;;;9.48;;
20527;SDS011;23612;50.894;10.700;2022-11-03T06:42:43;20.70;;;8.20;;
20527;SDS011;23612;50.894;10.700;2022-11-03T06:45:11;16.67;;;7.40;;
20527;SDS011;23612;50.894;10.700;2022-11-03T06:47:47;31.98;;;9.98;;
20527;SDS011;23612;50.894;10.700;2022-11-03T06:50:32;28.75;;;11.02;;
20527;SDS011;23612;50.894;10.700;2022-11-03T06:53:00;14.77;;;7.95;;
20527;SDS011;23612;50.894;10.700;2022-11-03T06:55:28;27.85;;;12.77;;
20527;SDS011;23612;50.894;10.700;2022-11-03T06:57:58;20.10;;;10.93;;
20527;SDS011;23612;50.894;10.700;2022-11-03T07:00:54;25.88;;;9.93;;
20527;SDS011;23612;50.894;10.700;2022-11-03T07:03:27;36.03;;;16.25;;
20527;SDS011;23612;50.894;10.700;2022-11-03T07:05:59;27.52;;;10.70;;
20527;SDS011;23612;50.894;10.700;2022-11-03T07:08:35;32.63;;;15.70;;
20527;SDS011;23612;50.894;10.700;2022-11-03T07:11:09;33.35;;;15.57;;
20527;SDS011;23612;50.894;10.700;2022-11-03T07:13:35;20.05;;;7.50;;
20527;SDS011;23612;50.894;10.700;2022-11-03T07:16:01;29.02;;;12.05;;
20527;SDS011;23612;50.894;10.700;2022-11-03T07:18:32;18.35;;;9.75;;
20527;SDS011;23612;50.894;10.700;2022-11-03T07:21:01;17.45;;;9.80;;
20527;SDS011;23612;50.894;10.700;2022-11-03T07:23:37;17.52;;;8.30;;
20527;SDS011;23612;50.894;10.700;2022-11-03T07:26:03;22.55;;;10.15;;
20527;SDS011;23612;50.894;10.700;2022-11-03T07:28:34;17.38;;;7.45;;
20527;SDS011;23612;50.894;10.700;2022-11-03T07:31:01;32.85;;;9.95;;
20527;SDS011;23612;50.894;10.700;2022-11-03T07:33:38;25.30;;;10.80;;
20527;SDS011;23612;50.894;10.700;2022-11-03T07:36:03;26.90;;;9.73;;
20527;SDS011;23612;50.894;10.700;2022-11-03T07:38:30;19.88;;;9.20;;
20527;SDS011;23612;50.894;10.700;2022-11-03T07:40:57;20.90;;;8.73;;
20527;SDS011;23612;50.894;10.700;2022-11-03T07:43:26;16.63;;;7.65;;
20527;SDS011;23612;50.894;10.700;2022-11-03T07:45:55;19.27;;;8.00;;
20527;SDS011;23612;50.894;10.700;2022-11-03T07:56:37;21.77;;;8.02;;
20527;SDS011;23612;50.894;10.700;2022-11-03T08:01:45;30.00;;;10.85;;
20527;SDS011;23612;50.894;10.700;2022-11-03T08:04:17;30.38;;;9.93;;
20527;SDS011;23612;50.894;10.700;2022-11-03T08:06:46;16.58;;;6.93;;
20527;SDS011;23612;50.894;10.700;2022-11-03T08:09:12;23.95;;;8.43;;
20527;SDS011;23612;50.894;10.700;2022-11-03T08:11:38;15.10;;;7.10;;
20527;SDS011;23612;50.894;10.700;2022-11-03T08:14:03;18.45;;;6.55;;
20527;SDS011;23612;50.894;10.700;2022-11-03T08:16:29;18.92;;;7.50;;
20527;SDS011;23612;50.894;10.700;2022-11-03T08:18:54;28.70;;;8.20;;
20527;SDS011;23612;50.894;10.700;2022-11-03T08:21:20;28.02;;;8.05;;
20527;SDS011;23612;50.894;10.700;2022-11-03T08:23:46;24.58;;;9.00;;
20527;SDS011;23612;50.894;10.700;2022-11-03T08:26:11;24.23;;;6.97;;
20527;SDS011;23612;50.894;10.700;2022-11-03T08:28:37;21.02;;;7.50;;
20527;SDS011;23612;50.894;10.700;2022-11-03T08:31:02;33.42;;;11.05;;
20527;SDS011;23612;50.894;10.700;2022-11-03T08:33:31;35.28;;;11.13;;
20527;SDS011;23612;50.894;10.700;2022-11-03T08:35:58;33.08;;;12.73;;
20527;SDS011;23612;50.894;10.700;2022-11-03T08:38:24;40.85;;;14.57;;
20527;SDS011;23612;50.894;10.700;2022-11-03T08:40:49;47.67;;;16.45;;
20527;SDS011;23612;50.894;10.700;2022-11-03T08:43:15;40.80;;;15.73;;
20527;SDS011;23612;50.894;10.700;2022-11-03T08:45:41;39.38;;;14.55;;
20527;SDS011;23612;50.894;10.700;2022-11-03T08:48:06;37.83;;;14.43;;
20527;SDS011;23612;50.894;10.700;2022-11-03T08:50:32;32.38;;;11.80;;
20527;SDS011;23612;50.894;10.700;2022-11-03T08:52:57;35.95;;;10.77;;
20527;SDS011;23612;50.894;10.700;2022-11-03T08:55:23;37.30;;;11.32;;
20527;SDS011;23612;50.894;10.700;2022-11-03T08:57:48;29.05;;;11.35;;
20527;SDS011;23612;50.894;10.700;2022-11-03T09:00:14;30.73;;;12.45;;
20527;SDS011;23612;50.894;10.700;2022-11-03T09:02:43;32.78;;;13.13;;
20527;SDS011;23612;50.894;10.700;2022-11-03T09:05:09;34.05;;;13.65;;
20527;SDS011;23612;50.894;10.700;2022-11-03T09:07:35;16.55;;;7.32;;
20527;SDS011;23612;50.894;10.700;2022-11-03T09:10:01;44.72;;;16.63;;
20527;SDS011;23612;50.894;10.700;2022-11-03T09:12:26;27.85;;;9.25;;
20527;SDS011;23612;50.894;10.700;2022-11-03T09:14:52;16.83;;;7.05;;
20527;SDS011;23612;50.894;10.700;2022-11-03T09:17:17;15.52;;;6.97;;
20527;SDS011;23612;50.894;10.700;2022-11-03T09:19:43;13.30;;;6.72;;
20527;SDS011;23612;50.894;10.700;2022-11-03T09:22:08;18.27;;;6.15;;
20527;SDS011;23612;50.894;10.700;2022-11-03T09:24:34;15.55;;;5.47;;
20527;SDS011;23612;50.894;10.700;2022-11-03T09:26:59;10.18;;;4.65;;
20527;SDS011;23612;50.894;10.700;2022-11-03T09:29:25;15.52;;;4.28;;
20527;SDS011;23612;50.894;10.700;2022-11-03T09:31:50;13.93;;;4.03;;
20527;SDS011;23612;50.894;10.700;2022-11-03T09:34:16;8.50;;;3.50;;
20527;SDS011;23612;50.894;10.700;2022-11-03T09:36:41;7.72;;;3.33;;
20527;SDS011;23612;50.894;10.700;2022-11-03T09:39:07;6.90;;;3.30;;
20527;SDS011;23612;50.894;10.700;2022-11-03T09:41:33;6.70;;;3.13;;
20527;SDS011;23612;50.894;10.700;2022-11-03T09:43:58;9.90;;;3.28;;
20527;SDS011;23612;50.894;10.700;2022-11-03T09:46:25;10.40;;;3.13;;
20527;SDS011;23612;50.894;10.700;2022-11-03T09:48:53;8.18;;;2.92;;
20527;SDS011;23612;50.894;10.700;2022-11-03T09:51:20;8.68;;;2.58;;
20527;SDS011;23612;50.894;10.700;2022-11-03T09:53:47;9.52;;;3.08;;
20527;SDS011;23612;50.894;10.700;2022-11-03T09:56:14;4.63;;;2.58;;
20527;SDS011;23612;50.894;10.700;2022-11-03T09:58:41;7.30;;;3.05;;
20527;SDS011;23612;50.894;10.700;2022-11-03T10:01:08;8.38;;;3.20;;
20527;SDS011;23612;50.894;10.700;2022-11-03T10:03:35;6.40;;;2.80;;
20527;SDS011;23612;50.894;10.700;2022-11-03T10:06:03;8.80;;;2.83;;
20527;SDS011;23612;50.894;10.700;2022-11-03T10:08:29;14.30;;;3.85;;
20527;SDS011;23612;50.894;10.700;2022-11-03T10:10:56;15.70;;;4.50;;
20527;SDS011;23612;50.894;10.700;2022-11-03T10:13:25;16.02;;;4.35;;
20527;SDS011;23612;50.894;10.700;2022-11-03T10:16:17;16.92;;;4.30;;
20527;SDS011;23612;50.894;10.700;2022-11-03T10:18:45;12.30;;;4.95;;
20527;SDS011;23612;50.894;10.700;2022-11-03T10:21:14;8.93;;;3.88;;
20527;SDS011;23612;50.894;10.700;2022-11-03T10:23:49;9.55;;;3.25;;
20527;SDS011;23612;50.894;10.700;2022-11-03T10:26:15;20.48;;;11.35;;
20527;SDS011;23612;50.894;10.700;2022-11-03T10:29:17;4.88;;;2.80;;
20527;SDS011;23612;50.894;10.700;2022-11-03T10:31:43;2.42;;;1.67;;
20527;SDS011;23612;50.894;10.700;2022-11-03T10:37:16;4.85;;;1.75;;
20527;SDS011;23612;50.894;10.700;2022-11-03T10:39:47;8.55;;;2.20;;
20527;SDS011;23612;50.894;10.700;2022-11-03T10:42:17;12.73;;;1.73;;
20527;SDS011;23612;50.894;10.700;2022-11-03T10:44:49;4.60;;;1.80;;
20527;SDS011;23612;50.894;10.700;2022-11-03T10:47:23;9.82;;;2.15;;
20527;SDS011;23612;50.894;10.700;2022-11-03T10:49:55;6.07;;;1.88;;
20527;SDS011;23612;50.894;10.700;2022-11-03T10:52:22;7.03;;;1.65;;
20527;SDS011;23612;50.894;10.700;2022-11-03T10:54:49;4.50;;;1.85;;
20527;SDS011;23612;50.894;10.700;2022-11-03T10:57:16;3.10;;;1.50;;
20527;SDS011;23612;50.894;10.700;2022-11-03T10:59:43;4.70;;;1.92;;
20527;SDS011;23612;50.894;10.700;2022-11-03T11:02:18;3.95;;;2.08;;
20527;SDS011;23612;50.894;10.700;2022-11-03T11:04:52;5.82;;;1.90;;
20527;SDS011;23612;50.894;10.700;2022-11-03T11:07:23;4.70;;;2.00;;
20527;SDS011;23612;50.894;10.700;2022-11-03T11:09:55;6.00;;;2.35;;
20527;SDS011;23612;50.894;10.700;2022-11-03T11:13:12;6.07;;;2.00;;
20527;SDS011;23612;50.894;10.700;2022-11-03T11:20:52;5.28;;;2.30;;
20527;SDS011;23612;50.894;10.700;2022-11-03T11:28:41;5.95;;;2.47;;
20527;SDS011;23612;50.894;10.700;2022-11-03T11:47:23;7.05;;;2.80;;
20527;SDS011;23612;50.894;10.700;2022-11-03T11:52:33;4.38;;;2.38;;
20527;SDS011;23612;50.894;10.700;2022-11-03T11:57:58;8.57;;;2.80;;
20527;SDS011;23612;50.894;10.700;2022-11-03T12:00:27;9.15;;;2.50;;
20527;SDS011;23612;50.894;10.700;2022-11-03T12:02:54;9.60;;;2.40;;
20527;SDS011;23612;50.894;10.700;2022-11-03T12:05:22;7.20;;;2.30;;
20527;SDS011;23612;50.894;10.700;2022-11-03T12:07:56;4.80;;;2.03;;
20527;SDS011;23612;50.894;10.700;2022-11-03T12:10:23;8.73;;;2.60;;
20527;SDS011;23612;50.894;10.700;2022-11-03T12:12:50;7.07;;;2.50;;
20527;SDS011;23612;50.894;10.700;2022-11-03T12:21:05;9.30;;;4.25;;
20527;SDS011;23612;50.894;10.700;2022-11-03T12:23:32;12.10;;;3.20;;
20527;SDS011;23612;50.894;10.700;2022-11-03T12:26:03;8.10;;;2.67;;
20527;SDS011;23612;50.894;10.700;2022-11-03T12:28:35;5.80;;;2.65;;
20527;SDS011;23612;50.894;10.700;2022-11-03T12:31:01;7.47;;;2.58;;
20527;SDS011;23612;50.894;10.700;2022-11-03T12:33:28;6.75;;;2.35;;
20527;SDS011;23612;50.894;10.700;2022-11-03T12:35:54;10.82;;;2.33;;
20527;SDS011;23612;50.894;10.700;2022-11-03T12:38:20;4.72;;;2.30;;
20527;SDS011;23612;50.894;10.700;2022-11-03T12:40:46;6.90;;;2.78;;
20527;SDS011;23612;50.894;10.700;2022-11-03T12:43:12;7.57;;;2.65;;
20527;SDS011;23612;50.894;10.700;2022-11-03T12:45:37;6.53;;;2.65;;
20527;SDS011;23612;50.894;10.700;2022-11-03T12:48:03;6.10;;;2.20;;
20527;SDS011;23612;50.894;10.700;2022-11-03T12:50:30;7.18;;;2.65;;
20527;SDS011;23612;50.894;10.700;2022-11-03T12:52:55;4.05;;;2.70;;
20527;SDS011;23612;50.894;10.700;2022-11-03T12:55:21;5.72;;;1.95;;
20527;SDS011;23612;50.894;10.700;2022-11-03T12:57:46;6.28;;;2.85;;
20527;SDS011;23612;50.894;10.700;2022-11-03T13:00:12;8.38;;;2.70;;
20527;SDS011;23612;50.894;10.700;2022-11-03T13:02:38;4.18;;;2.30;;
20527;SDS011;23612;50.894;10.700;2022-11-03T13:05:04;7.85;;;3.80;;
20527;SDS011;23612;50.894;10.700;2022-11-03T13:07:30;8.52;;;3.97;;
20527;SDS011;23612;50.894;10.700;2022-11-03T13:09:56;7.30;;;2.38;;
20527;SDS011;23612;50.894;10.700;2022-11-03T13:12:22;5.32;;;2.28;;
20527;SDS011;23612;50.894;10.700;2022-11-03T13:15:00;5.15;;;2.38;;
20527;SDS011;23612;50.894;10.700;2022-11-03T13:17:28;3.65;;;2.00;;
20527;SDS011;23612;50.894;10.700;2022-11-03T13:19:54;4.72;;;2.35;;
20527;SDS011;23612;50.894;10.700;2022-11-03T13:22:19;3.63;;;2.33;;
20527;SDS011;23612;50.894;10.700;2022-11-03T13:24:45;4.35;;;2.30;;
20527;SDS011;23612;50.894;10.700;2022-11-03T13:27:11;6.22;;;2.58;;
20527;SDS011;23612;50.894;10.700;2022-11-03T13:29:37;3.58;;;1.98;;
20527;SDS011;23612;50.894;10.700;2022-11-03T13:32:03;5.65;;;2.22;;
20527;SDS011;23612;50.894;10.700;2022-11-03T13:34:30;6.18;;;2.05;;
20527;SDS011;23612;50.894;10.700;2022-11-03T13:36:55;9.45;;;2.08;;
20527;SDS011;23612;50.894;10.700;2022-11-03T13:39:22;3.95;;;2.30;;
20527;SDS011;23612;50.894;10.700;2022-11-03T13:41:48;5.43;;;2.30;;
20527;SDS011;23612;50.894;10.700;2022-11-03T13:44:13;8.70;;;2.42;;
20527;SDS011;23612;50.894;10.700;2022-11-03T13:46:39;6.22;;;2.28;;
20527;SDS011;23612;50.894;10.700;2022-11-03T13:49:04;3.17;;;2.10;;
20527;SDS011;23612;50.894;10.700;2022-11-03T13:51:30;5.38;;;2.33;;
20527;SDS011;23612;50.894;10.700;2022-11-03T13:53:56;3.05;;;2.25;;
20527;SDS011;23612;50.894;10.700;2022-11-03T13:56:21;6.55;;;2.58;;
20527;SDS011;23612;50.894;10.700;2022-11-03T13:58:47;4.05;;;2.35;;
20527;SDS011;23612;50.894;10.700;2022-11-03T14:01:12;4.13;;;2.40;;
20527;SDS011;23612;50.894;10.700;2022-11-03T14:03:38;7.45;;;2.90;;
20527;SDS011;23612;50.894;10.700;2022-11-03T14:06:03;5.35;;;2.08;;
20527;SDS011;23612;50.894;10.700;2022-11-03T14:08:29;6.28;;;2.67;;
20527;SDS011;23612;50.894;10.700;2022-11-03T14:10:55;6.15;;;2.90;;
20527;SDS011;23612;50.894;10.700;2022-11-03T14:13:20;4.97;;;2.65;;
20527;SDS011;23612;50.894;10.700;2022-11-03T14:15:46;6.45;;;2.47;;
20527;SDS011;23612;50.894;10.700;2022-11-03T14:18:11;4.57;;;2.70;;
20527;SDS011;23612;50.894;10.700;2022-11-03T14:20:37;14.10;;;3.33;;
20527;SDS011;23612;50.894;10.700;2022-11-03T14:23:02;5.13;;;2.72;;
20527;SDS011;23612;50.894;10.700;2022-11-03T14:25:28;18.63;;;8.57;;
20527;SDS011;23612;50.894;10.700;2022-11-03T14:27:53;5.70;;;2.67;;
20527;SDS011;23612;50.894;10.700;2022-11-03T14:30:19;6.10;;;4.57;;
20527;SDS011;23612;50.894;10.700;2022-11-03T14:32:44;4.30;;;3.30;;
20527;SDS011;23612;50.894;10.700;2022-11-03T14:35:10;3.75;;;2.35;;
20527;SDS011;23612;50.894;10.700;2022-11-03T14:37:36;7.40;;;2.35;;
20527;SDS011;23612;50.894;10.700;2022-11-03T14:40:02;8.02;;;2.40;;
20527;SDS011;23612;50.894;10.700;2022-11-03T14:42:29;6.90;;;2.80;;
20527;SDS011;23612;50.894;10.700;2022-11-03T14:44:54;7.82;;;2.80;;
20527;SDS011;23612;50.894;10.700;2022-11-03T14:47:20;10.02;;;3.38;;
20527;SDS011;23612;50.894;10.700;2022-11-03T14:49:45;8.93;;;3.30;;
20527;SDS011;23612;50.894;10.700;2022-11-03T14:52:12;12.63;;;2.92;;
20527;SDS011;23612;50.894;10.700;2022-11-03T14:54:39;3.25;;;2.58;;
20527;SDS011;23612;50.894;10.700;2022-11-03T14:57:04;6.13;;;3.05;;
20527;SDS011;23612;50.894;10.700;2022-11-03T14:59:30;5.68;;;2.95;;
20527;SDS011;23612;50.894;10.700;2022-11-03T15:01:56;5.68;;;2.70;;
20527;SDS011;23612;50.894;10.700;2022-11-03T15:04:22;8.02;;;3.15;;
20527;SDS011;23612;50.894;10.700;2022-11-03T15:06:48;8.77;;;3.30;;
20527;SDS011;23612;50.894;10.700;2022-11-03T15:09:14;9.70;;;3.17;;
20527;SDS011;23612;50.894;10.700;2022-11-03T15:11:40;7.13;;;3.30;;
20527;SDS011;23612;50.894;10.700;2022-11-03T15:14:06;7.38;;;3.55;;
20527;SDS011;23612;50.894;10.700;2022-11-03T15:16:32;11.48;;;3.50;;
20527;SDS011;23612;50.894;10.700;2022-11-03T15:19:02;9.27;;;3.80;;
20527;SDS011;23612;50.894;10.700;2022-11-03T15:21:28;12.60;;;3.92;;
20527;SDS011;23612;50.894;10.700;2022-11-03T15:23:54;13.20;;;3.92;;
20527;SDS011;23612;50.894;10.700;2022-11-03T15:26:19;7.05;;;3.78;;
20527;SDS011;23612;50.894;10.700;2022-11-03T15:28:45;4.72;;;3.67;;
20527;SDS011;23612;50.894;10.700;2022-11-03T15:31:10;9.50;;;4.15;;
20527;SDS011;23612;50.894;10.700;2022-11-03T15:33:36;6.68;;;4.15;;
20527;SDS011;23612;50.894;10.700;2022-11-03T15:36:01;8.65;;;4.47;;
20527;SDS011;23612;50.894;10.700;2022-11-03T15:38:28;7.93;;;3.83;;
20527;SDS011;23612;50.894;10.700;2022-11-03T15:40:54;8.05;;;3.97;;
20527;SDS011;23612;50.894;10.700;2022-11-03T15:43:39;11.23;;;4.18;;
20527;SDS011;23612;50.894;10.700;2022-11-03T15:46:06;7.05;;;5.07;;
20527;SDS011;23612;50.894;10.700;2022-11-03T15:48:31;15.48;;;4.05;;
20527;SDS011;23612;50.894;10.700;2022-11-03T15:50:57;10.55;;;4.82;;
20527;SDS011;23612;50.894;10.700;2022-11-03T15:53:22;9.02;;;4.50;;
20527;SDS011;23612;50.894;10.700;2022-11-03T15:55:48;9.93;;;4.38;;
20527;SDS011;23612;50.894;10.700;2022-11-03T15:58:14;10.30;;;4.55;;
20527;SDS011;23612;50.894;10.700;2022-11-03T16:00:39;10.68;;;4.50;;
20527;SDS011;23612;50.894;10.700;2022-11-03T16:03:04;10.02;;;6.93;;